sensor_id;sensor_type;location;lat;lon;timestamp;pressure;altitude;pressure_sealevel;temperature;humidity
55077;BME280;40971;44.702;11.030;2022-11-11T00:00:23;102997.50;;;11.98;100.00
55077;BME280;40971;44.702;11.030;2022-11-11T00:02:48;102933.75;;;11.60;100.00
55077;BME280;40971;44.702;11.030;2022-11-11T00:05:15;102998.38;;;11.97;100.00
55077;BME280;40971;44.702;11.030;2022-11-11T00:07:41;103003.66;;;11.95;100.00
55077;BME280;40971;44.702;11.030;2022-11-11T00:10:07;103001.09;;;11.92;100.00
55077;BME280;40971;44.702;11.030;2022-11-11T00:12:34;102856.38;;;11.11;100.00
55077;BME280;40971;44.702;11.030;2022-11-11T00:14:59;102995.00;;;11.92;100.00
55077;BME280;40971;44.702;11.030;2022-11-11T00:17:28;102997.56;;;11.95;100.00
55077;BME280;40971;44.702;11.030;2022-11-11T00:20:12;102982.09;;;11.84;100.00
55077;BME280;40971;44.702;11.030;2022-11-11T00:22:56;102992.41;;;11.90;100.00
55077;BME280;40971;44.702;11.030;2022-11-11T00:25:40;103001.03;;;11.95;100.00
55077;BME280;40971;44.702;11.030;2022-11-11T00:28:05;102982.09;;;11.84;100.00
55077;BME280;40971;44.702;11.030;2022-11-11T00:30:31;103010.66;;;11.95;100.00
55077;BME280;40971;44.702;11.030;2022-11-11T00:32:56;102990.78;;;11.86;100.00
55077;BME280;40971;44.702;11.030;2022-11-11T00:35:22;103001.16;;;11.89;100.00
55077;BME280;40971;44.702;11.030;2022-11-11T00:38:08;103013.50;;;11.84;100.00
55077;BME280;40971;44.702;11.030;2022-11-11T00:40:34;102990.84;;;11.83;100.00
55077;BME280;40971;44.702;11.030;2022-11-11T00:42:59;102989.94;;;11.84;100.00
55077;BME280;40971;44.702;11.030;2022-11-11T00:45:24;102980.50;;;11.77;100.00
55077;BME280;40971;44.702;11.030;2022-11-11T00:47:50;102934.03;;;11.48;100.00
55077;BME280;40971;44.702;11.030;2022-11-11T00:50:34;103005.53;;;11.89;100.00
55077;BME280;40971;44.702;11.030;2022-11-11T00:53:20;103008.13;;;11.90;100.00
55077;BME280;40971;44.702;11.030;2022-11-11T00:55:46;103009.06;;;11.88;100.00
55077;BME280;40971;44.702;11.030;2022-11-11T00:58:12;102991.78;;;11.81;100.00
55077;BME280;40971;44.702;11.030;2022-11-11T01:00:37;102998.81;;;11.77;100.00
55077;BME280;40971;44.702;11.030;2022-11-11T01:03:03;102963.50;;;11.56;100.00
55077;BME280;40971;44.702;11.030;2022-11-11T01:05:29;102999.69;;;11.78;100.00
55077;BME280;40971;44.702;11.030;2022-11-11T01:07:54;102976.56;;;11.56;100.00
55077;BME280;40971;44.702;11.030;2022-11-11T01:10:21;102993.06;;;11.61;100.00
55077;BME280;40971;44.702;11.030;2022-11-11T01:13:12;103020.63;;;11.79;100.00
55077;BME280;40971;44.702;11.030;2022-11-11T01:15:41;103013.47;;;11.86;100.00
55077;BME280;40971;44.702;11.030;2022-11-11T01:18:08;102999.69;;;11.78;100.00
55077;BME280;40971;44.702;11.030;2022-11-11T01:20:34;102953.84;;;11.58;100.00
55077;BME280;40971;44.702;11.030;2022-11-11T01:23:05;102965.81;;;11.70;100.00
55077;BME280;40971;44.702;11.030;2022-11-11T01:25:35;102998.59;;;11.88;100.00
55077;BME280;40971;44.702;11.030;2022-11-11T01:28:02;102970.22;;;11.68;100.00
55077;BME280;40971;44.702;11.030;2022-11-11T01:30:27;102985.63;;;11.83;100.00
55077;BME280;40971;44.702;11.030;2022-11-11T01:32:53;102962.38;;;11.68;100.00
55077;BME280;40971;44.702;11.030;2022-11-11T01:35:18;102990.97;;;11.79;100.00
55077;BME280;40971;44.702;11.030;2022-11-11T01:37:44;102990.09;;;11.75;100.00
55077;BME280;40971;44.702;11.030;2022-11-11T01:40:10;102979.81;;;11.67;100.00
55077;BME280;40971;44.702;11.030;2022-11-11T01:45:46;103010.03;;;11.84;100.00
55077;BME280;40971;44.702;11.030;2022-11-11T01:54:16;102990.25;;;11.69;100.00
55077;BME280;40971;44.702;11.030;2022-11-11T01:56:48;102983.41;;;11.63;100.00
55077;BME280;40971;44.702;11.030;2022-11-11T01:59:15;102992.84;;;11.70;100.00
55077;BME280;40971;44.702;11.030;2022-11-11T02:01:43;103005.78;;;11.78;100.00
55077;BME280;40971;44.702;11.030;2022-11-11T02:04:09;103013.59;;;11.81;100.00
55077;BME280;40971;44.702;11.030;2022-11-11T02:06:55;103016.25;;;11.80;100.00
55077;BME280;40971;44.702;11.030;2022-11-11T02:09:23;103006.66;;;11.77;100.00
55077;BME280;40971;44.702;11.030;2022-11-11T02:11:49;102955.06;;;11.43;100.00
55077;BME280;40971;44.702;11.030;2022-11-11T02:14:54;103013.66;;;11.77;100.00
55077;BME280;40971;44.702;11.030;2022-11-11T02:17:20;103006.75;;;11.72;100.00
55077;BME280;40971;44.702;11.030;2022-11-11T02:19:47;103022.34;;;11.80;100.00
55077;BME280;40971;44.702;11.030;2022-11-11T02:22:35;103014.75;;;11.66;100.00
55077;BME280;40971;44.702;11.030;2022-11-11T02:25:04;102958.78;;;11.33;100.00
55077;BME280;40971;44.702;11.030;2022-11-11T02:27:31;103017.41;;;11.65;100.00
55077;BME280;40971;44.702;11.030;2022-11-11T02:30:00;103014.81;;;11.63;100.00
55077;BME280;40971;44.702;11.030;2022-11-11T02:32:30;103016.47;;;11.67;100.00
55077;BME280;40971;44.702;11.030;2022-11-11T02:34:58;103043.31;;;11.79;100.00
55077;BME280;40971;44.702;11.030;2022-11-11T02:37:25;103020.78;;;11.70;100.00
55077;BME280;40971;44.702;11.030;2022-11-11T02:39:54;102978.47;;;11.50;100.00
55077;BME280;40971;44.702;11.030;2022-11-11T02:42:22;103008.63;;;11.67;100.00
55077;BME280;40971;44.702;11.030;2022-11-11T02:44:50;103001.78;;;11.62;100.00
55077;BME280;40971;44.702;11.030;2022-11-11T02:47:23;102955.25;;;11.34;100.00
55077;BME280;40971;44.702;11.030;2022-11-11T02:49:48;103024.16;;;11.75;100.00
55077;BME280;40971;44.702;11.030;2022-11-11T02:52:13;103015.50;;;11.71;100.00
55077;BME280;40971;44.702;11.030;2022-11-11T02:54:39;103013.78;;;11.70;100.00
55077;BME280;40971;44.702;11.030;2022-11-11T02:57:06;102945.84;;;11.27;100.00
55077;BME280;40971;44.702;11.030;2022-11-11T02:59:34;102959.56;;;11.37;100.00
55077;BME280;40971;44.702;11.030;2022-11-11T03:01:59;102968.19;;;11.40;100.00
55077;BME280;40971;44.702;11.030;2022-11-11T03:04:25;103026.84;;;11.72;100.00
55077;BME280;40971;44.702;11.030;2022-11-11T03:06:50;102981.16;;;11.47;100.00
55077;BME280;40971;44.702;11.030;2022-11-11T03:09:16;102971.78;;;11.36;100.00
55077;BME280;40971;44.702;11.030;2022-11-11T03:11:41;102964.06;;;11.30;100.00
55077;BME280;40971;44.702;11.030;2022-11-11T03:14:07;103008.78;;;11.61;100.00
55077;BME280;40971;44.702;11.030;2022-11-11T03:16:36;103006.22;;;11.57;100.00
55077;BME280;40971;44.702;11.030;2022-11-11T03:19:20;103030.41;;;11.68;100.00
55077;BME280;40971;44.702;11.030;2022-11-11T03:21:45;103008.81;;;11.60;100.00
55077;BME280;40971;44.702;11.030;2022-11-11T03:24:22;103011.44;;;11.58;100.00
55077;BME280;40971;44.702;11.030;2022-11-11T03:26:48;102965.72;;;11.34;100.00
55077;BME280;40971;44.702;11.030;2022-11-11T03:29:13;102982.94;;;11.46;100.00
55077;BME280;40971;44.702;11.030;2022-11-11T03:31:38;103014.03;;;11.58;100.00
55077;BME280;40971;44.702;11.030;2022-11-11T03:34:04;103026.19;;;11.62;100.00
55077;BME280;40971;44.702;11.030;2022-11-11T03:36:44;102882.44;;;10.73;100.00
55077;BME280;40971;44.702;11.030;2022-11-11T03:39:29;102970.41;;;11.19;100.00
55077;BME280;40971;44.702;11.030;2022-11-11T03:41:55;103024.78;;;11.46;100.00
55077;BME280;40971;44.702;11.030;2022-11-11T03:44:21;103016.25;;;11.36;100.00
55077;BME280;40971;44.702;11.030;2022-11-11T03:46:46;102994.75;;;11.22;100.00
55077;BME280;40971;44.702;11.030;2022-11-11T03:49:12;103005.38;;;11.14;100.00
55077;BME280;40971;44.702;11.030;2022-11-11T03:51:37;103021.03;;;11.16;100.00
55077;BME280;40971;44.702;11.030;2022-11-11T03:54:03;102970.19;;;10.86;100.00
55077;BME280;40971;44.702;11.030;2022-11-11T03:56:28;103031.63;;;11.10;100.00
55077;BME280;40971;44.702;11.030;2022-11-11T03:58:54;103031.56;;;11.13;100.00
55077;BME280;40971;44.702;11.030;2022-11-11T04:01:19;103032.59;;;11.04;100.00
55077;BME280;40971;44.702;11.030;2022-11-11T04:04:04;103018.91;;;10.90;100.00
55077;BME280;40971;44.702;11.030;2022-11-11T04:06:48;103037.94;;;10.98;100.00
55077;BME280;40971;44.702;11.030;2022-11-11T04:09:32;103024.34;;;10.79;100.00
55077;BME280;40971;44.702;11.030;2022-11-11T04:12:16;103032.19;;;10.79;100.00
55077;BME280;40971;44.702;11.030;2022-11-11T04:14:41;103042.59;;;10.82;100.00
55077;BME280;40971;44.702;11.030;2022-11-11T04:17:25;103041.84;;;10.76;100.00
55077;BME280;40971;44.702;11.030;2022-11-11T04:19:50;103036.84;;;10.64;100.00
55077;BME280;40971;44.702;11.030;2022-11-11T04:22:41;103038.66;;;10.59;100.00
55077;BME280;40971;44.702;11.030;2022-11-11T04:25:07;103040.41;;;10.57;100.00
55077;BME280;40971;44.702;11.030;2022-11-11T04:27:51;103052.47;;;10.65;100.00
55077;BME280;40971;44.702;11.030;2022-11-11T04:30:36;103037.88;;;10.53;100.00
55077;BME280;40971;44.702;11.030;2022-11-11T04:33:02;103037.19;;;10.42;100.00
55077;BME280;40971;44.702;11.030;2022-11-11T04:35:27;103031.91;;;10.47;100.00
55077;BME280;40971;44.702;11.030;2022-11-11T04:37:52;103021.59;;;10.36;100.00
55077;BME280;40971;44.702;11.030;2022-11-11T04:40:38;103036.28;;;10.45;100.00
55077;BME280;40971;44.702;11.030;2022-11-11T04:43:21;103013.03;;;10.30;100.00
55077;BME280;40971;44.702;11.030;2022-11-11T04:45:47;102973.25;;;10.11;100.00
55077;BME280;40971;44.702;11.030;2022-11-11T04:48:12;103013.06;;;10.27;100.00
55077;BME280;40971;44.702;11.030;2022-11-11T04:50:41;103051.13;;;10.43;100.00
55077;BME280;40971;44.702;11.030;2022-11-11T04:53:10;102987.31;;;10.02;100.00
55077;BME280;40971;44.702;11.030;2022-11-11T04:55:38;103055.63;;;10.33;100.00
55077;BME280;40971;44.702;11.030;2022-11-11T04:58:23;103050.53;;;10.26;100.00
55077;BME280;40971;44.702;11.030;2022-11-11T05:01:08;103039.25;;;10.19;100.00
55077;BME280;40971;44.702;11.030;2022-11-11T05:03:33;102982.38;;;9.82;100.00
55077;BME280;40971;44.702;11.030;2022-11-11T05:06:00;103017.84;;;9.97;100.00
55077;BME280;40971;44.702;11.030;2022-11-11T05:08:48;103058.44;;;10.18;100.00
55077;BME280;40971;44.702;11.030;2022-11-11T05:11:31;103058.47;;;10.16;100.00
55077;BME280;40971;44.702;11.030;2022-11-11T05:14:01;103036.84;;;10.07;100.00
55077;BME280;40971;44.702;11.030;2022-11-11T05:16:56;103004.19;;;9.80;100.00
55077;BME280;40971;44.702;11.030;2022-11-11T05:19:40;103043.94;;;9.97;100.00
55077;BME280;40971;44.702;11.030;2022-11-11T05:22:38;103060.38;;;10.04;100.00
55077;BME280;40971;44.702;11.030;2022-11-11T05:25:05;103055.19;;;10.02;100.00
55077;BME280;40971;44.702;11.030;2022-11-11T05:27:50;103054.41;;;9.97;100.00
55077;BME280;40971;44.702;11.030;2022-11-11T05:30:17;103046.69;;;9.88;100.00
55077;BME280;40971;44.702;11.030;2022-11-11T05:32:53;103032.97;;;9.72;100.00
55077;BME280;40971;44.702;11.030;2022-11-11T05:35:20;103037.28;;;9.78;100.00
55077;BME280;40971;44.702;11.030;2022-11-11T05:37:45;103060.69;;;9.82;100.00
55077;BME280;40971;44.702;11.030;2022-11-11T05:40:31;103053.78;;;9.78;100.00
55077;BME280;40971;44.702;11.030;2022-11-11T05:42:56;103020.13;;;9.60;100.00
55077;BME280;40971;44.702;11.030;2022-11-11T05:45:21;103058.94;;;9.83;100.00
55077;BME280;40971;44.702;11.030;2022-11-11T05:47:47;103068.44;;;9.87;100.00
55077;BME280;40971;44.702;11.030;2022-11-11T05:50:12;103056.34;;;9.81;100.00
55077;BME280;40971;44.702;11.030;2022-11-11T05:52:37;102965.00;;;9.18;100.00
55077;BME280;40971;44.702;11.030;2022-11-11T05:55:03;103072.91;;;9.80;100.00
55077;BME280;40971;44.702;11.030;2022-11-11T05:57:29;103066.03;;;9.75;100.00
55077;BME280;40971;44.702;11.030;2022-11-11T05:59:54;103046.19;;;9.61;100.00
55077;BME280;40971;44.702;11.030;2022-11-11T06:02:23;103065.19;;;9.70;100.00
55077;BME280;40971;44.702;11.030;2022-11-11T06:04:48;103069.50;;;9.75;100.00
55077;BME280;40971;44.702;11.030;2022-11-11T06:07:14;103045.38;;;9.58;100.00
55077;BME280;40971;44.702;11.030;2022-11-11T06:09:39;103050.59;;;9.58;100.00
55077;BME280;40971;44.702;11.030;2022-11-11T06:12:05;103068.72;;;9.65;100.00
55077;BME280;40971;44.702;11.030;2022-11-11T06:14:30;103091.25;;;9.74;100.00
55077;BME280;40971;44.702;11.030;2022-11-11T06:16:55;103090.34;;;9.77;100.00
55077;BME280;40971;44.702;11.030;2022-11-11T06:19:21;103084.34;;;9.69;100.00
55077;BME280;40971;44.702;11.030;2022-11-11T06:21:46;103079.16;;;9.67;100.00
55077;BME280;40971;44.702;11.030;2022-11-11T06:24:21;103078.97;;;9.81;100.00
55077;BME280;40971;44.702;11.030;2022-11-11T06:26:46;103081.53;;;9.84;100.00
55077;BME280;40971;44.702;11.030;2022-11-11T06:29:28;103028.81;;;9.60;100.00
55077;BME280;40971;44.702;11.030;2022-11-11T06:31:53;103067.59;;;9.85;100.00
55077;BME280;40971;44.702;11.030;2022-11-11T06:34:19;103083.22;;;9.88;100.00
55077;BME280;40971;44.702;11.030;2022-11-11T06:36:44;103083.09;;;9.97;100.00
55077;BME280;40971;44.702;11.030;2022-11-11T06:39:10;103094.28;;;10.07;100.00
55077;BME280;40971;44.702;11.030;2022-11-11T06:41:35;103083.06;;;10.00;100.00
55077;BME280;40971;44.702;11.030;2022-11-11T06:44:01;103054.63;;;9.80;100.00
55077;BME280;40971;44.702;11.030;2022-11-11T06:46:26;103095.16;;;10.06;100.00
55077;BME280;40971;44.702;11.030;2022-11-11T06:48:53;103104.66;;;10.13;100.00
55077;BME280;40971;44.702;11.030;2022-11-11T06:51:18;103078.91;;;9.85;100.00
55077;BME280;40971;44.702;11.030;2022-11-11T06:53:44;102989.97;;;9.38;100.00
55077;BME280;40971;44.702;11.030;2022-11-11T06:56:10;103128.91;;;10.19;100.00
55077;BME280;40971;44.702;11.030;2022-11-11T06:58:39;103113.31;;;10.15;100.00
55077;BME280;40971;44.702;11.030;2022-11-11T07:01:05;103070.06;;;9.97;100.00
55077;BME280;40971;44.702;11.030;2022-11-11T07:03:32;103107.06;;;10.28;100.00
55077;BME280;40971;44.702;11.030;2022-11-11T07:06:00;103115.59;;;10.39;100.00
55077;BME280;40971;44.702;11.030;2022-11-11T07:08:25;103106.03;;;10.38;100.00
55077;BME280;40971;44.702;11.030;2022-11-11T07:10:51;103105.09;;;10.44;100.00
55077;BME280;40971;44.702;11.030;2022-11-11T07:13:16;103081.81;;;10.29;100.00
55077;BME280;40971;44.702;11.030;2022-11-11T07:15:42;103111.94;;;10.51;100.00
55077;BME280;40971;44.702;11.030;2022-11-11T07:18:08;103114.56;;;10.51;100.00
55077;BME280;40971;44.702;11.030;2022-11-11T07:20:34;103128.38;;;10.58;100.00
55077;BME280;40971;44.702;11.030;2022-11-11T07:22:59;103107.56;;;10.53;100.00
55077;BME280;40971;44.702;11.030;2022-11-11T07:25:29;103061.78;;;10.29;100.00
55077;BME280;40971;44.702;11.030;2022-11-11T07:27:55;103029.69;;;10.19;100.00
55077;BME280;40971;44.702;11.030;2022-11-11T07:30:20;103115.75;;;10.84;100.00
55077;BME280;40971;44.702;11.030;2022-11-11T07:32:47;103131.97;;;11.04;100.00
55077;BME280;40971;44.702;11.030;2022-11-11T07:35:13;103113.53;;;11.12;100.00
55077;BME280;40971;44.702;11.030;2022-11-11T07:37:39;103124.66;;;11.22;100.00
55077;BME280;40971;44.702;11.030;2022-11-11T07:40:06;103124.63;;;11.26;100.00
55077;BME280;40971;44.702;11.030;2022-11-11T07:42:34;103111.50;;;11.28;100.00
55077;BME280;40971;44.702;11.030;2022-11-11T07:45:00;103099.34;;;11.24;100.00
55077;BME280;40971;44.702;11.030;2022-11-11T07:47:25;103123.44;;;11.41;100.00
55077;BME280;40971;44.702;11.030;2022-11-11T07:49:51;103116.53;;;11.37;100.00
55077;BME280;40971;44.702;11.030;2022-11-11T07:52:16;103105.13;;;11.42;100.00
55077;BME280;40971;44.702;11.030;2022-11-11T07:54:44;103136.84;;;11.69;100.00
55077;BME280;40971;44.702;11.030;2022-11-11T07:57:09;103150.63;;;11.80;100.00
55077;BME280;40971;44.702;11.030;2022-11-11T07:59:35;103137.72;;;11.69;100.00
55077;BME280;40971;44.702;11.030;2022-11-11T08:02:02;103128.13;;;11.68;100.00
55077;BME280;40971;44.702;11.030;2022-11-11T08:04:28;103137.59;;;11.74;100.00
55077;BME280;40971;44.702;11.030;2022-11-11T08:06:53;103112.66;;;11.56;100.00
55077;BME280;40971;44.702;11.030;2022-11-11T08:09:19;103156.44;;;11.94;100.00
55077;BME280;40971;44.702;11.030;2022-11-11T08:11:46;103130.38;;;11.88;100.00
55077;BME280;40971;44.702;11.030;2022-11-11T08:14:31;103146.66;;;12.02;100.00
55077;BME280;40971;44.702;11.030;2022-11-11T08:16:56;103134.38;;;12.04;100.00
55077;BME280;40971;44.702;11.030;2022-11-11T08:19:22;103140.50;;;12.05;100.00
55077;BME280;40971;44.702;11.030;2022-11-11T08:21:47;103147.28;;;12.14;100.00
55077;BME280;40971;44.702;11.030;2022-11-11T08:24:12;103153.50;;;12.10;100.00
55077;BME280;40971;44.702;11.030;2022-11-11T08:26:38;103124.28;;;11.88;100.00
55077;BME280;40971;44.702;11.030;2022-11-11T08:29:03;103156.06;;;12.13;100.00
55077;BME280;40971;44.702;11.030;2022-11-11T08:31:29;103163.69;;;12.22;100.00
55077;BME280;40971;44.702;11.030;2022-11-11T08:33:54;103183.16;;;12.50;100.00
55077;BME280;40971;44.702;11.030;2022-11-11T08:36:21;103173.56;;;12.49;100.00
55077;BME280;40971;44.702;11.030;2022-11-11T08:38:47;103150.41;;;12.31;100.00
55077;BME280;40971;44.702;11.030;2022-11-11T08:41:13;103209.22;;;12.56;100.00
55077;BME280;40971;44.702;11.030;2022-11-11T08:43:38;103142.78;;;12.20;100.00
55077;BME280;40971;44.702;11.030;2022-11-11T08:46:04;103179.88;;;12.41;100.00
55077;BME280;40971;44.702;11.030;2022-11-11T08:48:30;103193.78;;;12.44;100.00
55077;BME280;40971;44.702;11.030;2022-11-11T08:50:57;103197.09;;;12.52;100.00
55077;BME280;40971;44.702;11.030;2022-11-11T08:53:23;103180.81;;;12.38;100.00
55077;BME280;40971;44.702;11.030;2022-11-11T08:55:48;103174.59;;;12.44;100.00
55077;BME280;40971;44.702;11.030;2022-11-11T08:58:14;103194.34;;;12.57;100.00
55077;BME280;40971;44.702;11.030;2022-11-11T09:00:39;103196.78;;;12.66;100.00
55077;BME280;40971;44.702;11.030;2022-11-11T09:03:06;103153.38;;;12.53;100.00
55077;BME280;40971;44.702;11.030;2022-11-11T09:05:33;103198.66;;;12.97;100.00
55077;BME280;40971;44.702;11.030;2022-11-11T09:08:03;103210.25;;;13.23;100.00
55077;BME280;40971;44.702;11.030;2022-11-11T09:10:32;103161.78;;;13.03;100.00
55077;BME280;40971;44.702;11.030;2022-11-11T09:12:58;103177.13;;;13.19;100.00
55077;BME280;40971;44.702;11.030;2022-11-11T09:15:25;103219.78;;;13.62;100.00
55077;BME280;40971;44.702;11.030;2022-11-11T09:17:52;103163.69;;;13.32;100.00
55077;BME280;40971;44.702;11.030;2022-11-11T09:20:18;103086.22;;;12.83;100.00
55077;BME280;40971;44.702;11.030;2022-11-11T09:22:46;103228.34;;;13.68;100.00
55077;BME280;40971;44.702;11.030;2022-11-11T09:25:12;103209.38;;;13.57;100.00
55077;BME280;40971;44.702;11.030;2022-11-11T09:27:37;103225.28;;;13.83;100.00
55077;BME280;40971;44.702;11.030;2022-11-11T09:30:03;103228.63;;;13.89;100.00
55077;BME280;40971;44.702;11.030;2022-11-11T09:32:30;103245.22;;;13.91;100.00
55077;BME280;40971;44.702;11.030;2022-11-11T09:34:55;103233.63;;;13.67;100.00
55077;BME280;40971;44.702;11.030;2022-11-11T09:37:21;103252.16;;;13.62;100.00
55077;BME280;40971;44.702;11.030;2022-11-11T09:39:47;103247.03;;;13.56;100.00
55077;BME280;40971;44.702;11.030;2022-11-11T09:42:29;103240.38;;;13.43;100.00
55077;BME280;40971;44.702;11.030;2022-11-11T09:45:13;103261.97;;;13.54;100.00
55077;BME280;40971;44.702;11.030;2022-11-11T09:50:21;103251.06;;;13.69;100.00
55077;BME280;40971;44.702;11.030;2022-11-11T09:55:43;103250.03;;;14.06;100.00
55077;BME280;40971;44.702;11.030;2022-11-11T10:00:47;103244.06;;;14.01;100.00
55077;BME280;40971;44.702;11.030;2022-11-11T10:03:22;103239.72;;;14.00;100.00
55077;BME280;40971;44.702;11.030;2022-11-11T10:06:01;103256.31;;;14.02;100.00
55077;BME280;40971;44.702;11.030;2022-11-11T10:08:33;103242.94;;;14.09;100.00
55077;BME280;40971;44.702;11.030;2022-11-11T10:11:15;103249.94;;;14.09;100.00
55077;BME280;40971;44.702;11.030;2022-11-11T10:13:42;103235.03;;;14.11;100.00
55077;BME280;40971;44.702;11.030;2022-11-11T10:16:20;103228.88;;;14.10;100.00
55077;BME280;40971;44.702;11.030;2022-11-11T10:21:52;103244.41;;;14.20;100.00
55077;BME280;40971;44.702;11.030;2022-11-11T10:24:40;103226.41;;;14.06;100.00
55077;BME280;40971;44.702;11.030;2022-11-11T10:27:19;103236.69;;;14.13;100.00
55077;BME280;40971;44.702;11.030;2022-11-11T10:29:45;103244.09;;;14.30;100.00
55077;BME280;40971;44.702;11.030;2022-11-11T10:32:20;103237.59;;;14.42;100.00
55077;BME280;40971;44.702;11.030;2022-11-11T10:34:46;103228.72;;;14.48;100.00
55077;BME280;40971;44.702;11.030;2022-11-11T10:37:21;103203.59;;;14.36;100.00
55077;BME280;40971;44.702;11.030;2022-11-11T10:42:26;103224.00;;;14.57;100.00
55077;BME280;40971;44.702;11.030;2022-11-11T10:44:57;103215.25;;;14.57;100.00
55077;BME280;40971;44.702;11.030;2022-11-11T10:50:03;103177.09;;;14.43;100.00
55077;BME280;40971;44.702;11.030;2022-11-11T10:52:37;103219.28;;;14.68;100.00
55077;BME280;40971;44.702;11.030;2022-11-11T10:57:52;103198.63;;;14.56;100.00
55077;BME280;40971;44.702;11.030;2022-11-11T11:00:19;103185.84;;;14.46;100.00
55077;BME280;40971;44.702;11.030;2022-11-11T11:03:46;103204.09;;;14.78;100.00
55077;BME280;40971;44.702;11.030;2022-11-11T11:08:32;103188.06;;;15.11;100.00
55077;BME280;40971;44.702;11.030;2022-11-11T11:11:02;103180.16;;;15.12;100.00
55077;BME280;40971;44.702;11.030;2022-11-11T11:15:57;103169.81;;;15.06;100.00
55077;BME280;40971;44.702;11.030;2022-11-11T11:18:24;103166.03;;;14.88;100.00
55077;BME280;40971;44.702;11.030;2022-11-11T11:23:43;103176.00;;;15.05;100.00
55077;BME280;40971;44.702;11.030;2022-11-11T11:26:21;103151.78;;;14.95;100.00
55077;BME280;40971;44.702;11.030;2022-11-11T11:28:55;103170.75;;;15.30;100.00
55077;BME280;40971;44.702;11.030;2022-11-11T11:31:38;103157.41;;;15.10;100.00
55077;BME280;40971;44.702;11.030;2022-11-11T11:34:04;103156.00;;;15.24;100.00
55077;BME280;40971;44.702;11.030;2022-11-11T11:36:30;103154.28;;;14.98;100.00
55077;BME280;40971;44.702;11.030;2022-11-11T11:38:55;103159.13;;;15.11;100.00
55077;BME280;40971;44.702;11.030;2022-11-11T11:41:44;103167.03;;;15.35;100.00
55077;BME280;40971;44.702;11.030;2022-11-11T11:44:25;103162.44;;;15.67;100.00
55077;BME280;40971;44.702;11.030;2022-11-11T11:50:03;103139.34;;;15.74;100.00
55077;BME280;40971;44.702;11.030;2022-11-11T11:55:24;103156.50;;;16.07;100.00
55077;BME280;40971;44.702;11.030;2022-11-11T12:00:23;103145.69;;;16.15;100.00
55077;BME280;40971;44.702;11.030;2022-11-11T12:17:28;103123.03;;;16.09;100.00
55077;BME280;40971;44.702;11.030;2022-11-11T12:28:45;103085.22;;;16.10;100.00
55077;BME280;40971;44.702;11.030;2022-11-11T12:31:16;103126.06;;;16.44;100.00
55077;BME280;40971;44.702;11.030;2022-11-11T12:36:47;103122.13;;;16.54;100.00
55077;BME280;40971;44.702;11.030;2022-11-11T12:42:29;103130.97;;;16.31;100.00
55077;BME280;40971;44.702;11.030;2022-11-11T12:45:14;103050.09;;;15.88;100.00
55077;BME280;40971;44.702;11.030;2022-11-11T13:06:52;103074.63;;;16.34;100.00
55077;BME280;40971;44.702;11.030;2022-11-11T13:12:23;103127.38;;;16.98;100.00
55077;BME280;40971;44.702;11.030;2022-11-11T13:15:14;103119.81;;;16.68;100.00
55077;BME280;40971;44.702;11.030;2022-11-11T13:17:41;103098.47;;;16.52;100.00
55077;BME280;40971;44.702;11.030;2022-11-11T13:22:54;103115.13;;;16.53;100.00
55077;BME280;40971;44.702;11.030;2022-11-11T13:25:25;103103.59;;;16.55;100.00
55077;BME280;40971;44.702;11.030;2022-11-11T13:31:22;103102.81;;;16.53;100.00
55077;BME280;40971;44.702;11.030;2022-11-11T13:33:57;103125.19;;;16.43;100.00
55077;BME280;40971;44.702;11.030;2022-11-11T13:36:40;103132.38;;;16.40;100.00
55077;BME280;40971;44.702;11.030;2022-11-11T13:39:25;103129.53;;;16.44;100.00
55077;BME280;40971;44.702;11.030;2022-11-11T13:41:58;103106.31;;;16.32;100.00
55077;BME280;40971;44.702;11.030;2022-11-11T13:44:34;103120.91;;;16.41;100.00
55077;BME280;40971;44.702;11.030;2022-11-11T13:47:05;103132.94;;;16.48;100.00
55077;BME280;40971;44.702;11.030;2022-11-11T13:50:06;103124.09;;;16.27;100.00
55077;BME280;40971;44.702;11.030;2022-11-11T13:52:36;103112.81;;;16.23;100.00
55077;BME280;40971;44.702;11.030;2022-11-11T13:55:09;103122.91;;;16.12;100.00
55077;BME280;40971;44.702;11.030;2022-11-11T13:57:51;103057.19;;;15.64;100.00
55077;BME280;40971;44.702;11.030;2022-11-11T14:02:46;103123.69;;;15.92;100.00
55077;BME280;40971;44.702;11.030;2022-11-11T14:05:16;103119.72;;;15.82;100.00
55077;BME280;40971;44.702;11.030;2022-11-11T14:15:45;103122.34;;;15.82;100.00
55077;BME280;40971;44.702;11.030;2022-11-11T14:20:51;103115.75;;;15.71;100.00
55077;BME280;40971;44.702;11.030;2022-11-11T14:23:32;103114.72;;;15.75;100.00
55077;BME280;40971;44.702;11.030;2022-11-11T14:28:59;103131.34;;;15.52;100.00
55077;BME280;40971;44.702;11.030;2022-11-11T14:34:57;103122.44;;;15.31;100.00
55077;BME280;40971;44.702;11.030;2022-11-11T14:38:57;103114.34;;;15.12;100.00
55077;BME280;40971;44.702;11.030;2022-11-11T14:40:52;103059.22;;;14.83;100.00
55077;BME280;40971;44.702;11.030;2022-11-11T14:43:38;103076.31;;;14.96;100.00
55077;BME280;40971;44.702;11.030;2022-11-11T14:46:14;103110.75;;;15.15;100.00
55077;BME280;40971;44.702;11.030;2022-11-11T14:49:06;103103.28;;;15.02;100.00